Time;durP1;ratioP1;P1;durP2;ratioP2;P2;SDS_P1;SDS_P2;PMS_P1;PMS_P2;Temp;Humidity;BMP_temperature;BMP_pressure;BME280_temperature;BME280_humidity;BME280_pressure;Samples;Min_cycle;Max_cycle;Signal;HPM_P1;HPM_P2
2021/10/16 02:47:55;;;;;;;10.68;6.90;;;11.60;98.70;;;;;;4808674;29;20043;-79
2021/10/16 02:50:22;;;;;;;12.85;7.03;;;11.70;98.60;;;;;;4790713;29;20027;-79
2021/10/16 02:52:47;;;;;;;11.02;7.03;;;11.70;98.60;;;;;;4804411;29;20199;-79
2021/10/16 02:55:13;;;;;;;10.57;6.57;;;11.80;98.40;;;;;;4790703;30;20032;-79
2021/10/16 02:57:53;;;;;;;11.25;5.88;;;11.80;98.30;;;;;;4791568;30;20034;-79
2021/10/16 03:00:21;;;;;;;7.00;5.07;;;11.90;98.10;;;;;;4783665;29;20032;-79
2021/10/16 03:02:47;;;;;;;7.20;5.47;;;12.00;98.00;;;;;;4795945;30;20284;-79
2021/10/16 03:05:14;;;;;;;;;;;12.00;97.70;;;;;;4784328;29;20107;-79
2021/10/16 03:07:41;;;;;;;8.20;4.97;;;12.10;97.60;;;;;;4793089;29;19917;-79
2021/10/16 03:10:07;;;;;;;8.68;5.30;;;12.10;97.40;;;;;;4775201;30;20043;-79
2021/10/16 03:12:33;;;;;;;7.70;5.43;;;12.10;97.40;;;;;;4794449;29;20039;-79
2021/10/16 03:15:02;;;;;;;9.05;5.75;;;12.20;97.20;;;;;;4795846;30;20057;-79
2021/10/16 03:17:28;;;;;;;7.63;5.63;;;12.20;97.10;;;;;;4804372;29;20323;-79
2021/10/16 03:19:54;;;;;;;6.35;5.07;;;12.20;97.00;;;;;;4781815;30;20028;-81
2021/10/16 03:22:20;;;;;;;6.40;4.45;;;12.20;96.80;;;;;;4812915;29;20388;-79
2021/10/16 03:24:46;;;;;;;7.28;5.03;;;12.30;96.60;;;;;;4788696;30;20035;-79
2021/10/16 03:27:12;;;;;;;8.07;5.20;;;12.30;96.60;;;;;;4800150;29;20062;-79
2021/10/16 03:29:37;;;;;;;10.38;5.68;;;12.30;96.90;;;;;;4798999;29;20038;-79
2021/10/16 03:32:03;;;;;;;7.40;5.05;;;12.30;96.60;;;;;;4786731;30;20112;-79
2021/10/16 03:34:30;;;;;;;12.65;5.13;;;12.30;96.60;;;;;;4786654;29;20035;-79
2021/10/16 03:36:56;;;;;;;;;;;12.30;96.60;;;;;;4796534;29;20039;-79
2021/10/16 03:39:22;;;;;;;8.30;5.57;;;12.20;96.90;;;;;;4798346;29;19918;-79
2021/10/16 03:41:48;;;;;;;9.57;6.10;;;12.30;96.80;;;;;;4799962;30;20046;-79
2021/10/16 03:44:14;;;;;;;12.73;5.57;;;12.30;96.70;;;;;;4798646;30;20035;-79
2021/10/16 03:46:41;;;;;;;8.98;5.80;;;12.20;96.80;;;;;;4792552;30;20051;-79
2021/10/16 03:49:08;;;;;;;6.93;5.10;;;12.20;96.90;;;;;;4784771;29;20039;-79
2021/10/16 03:51:34;;;;;;;8.55;5.50;;;12.20;96.90;;;;;;4795656;30;20031;-79
2021/10/16 03:54:03;;;;;;;7.43;5.88;;;12.30;96.80;;;;;;4774619;30;20038;-79
2021/10/16 03:56:30;;;;;;;10.55;5.30;;;12.30;96.80;;;;;;4770233;30;20027;-79
2021/10/16 03:58:56;;;;;;;8.55;5.63;;;12.30;96.70;;;;;;4789350;29;20379;-79
2021/10/16 04:01:22;;;;;;;8.50;5.73;;;12.30;96.80;;;;;;4795506;29;20031;-79
2021/10/16 04:03:48;;;;;;;10.15;5.93;;;12.30;96.70;;;;;;4780774;29;20055;-79
2021/10/16 04:06:15;;;;;;;9.95;5.50;;;12.20;96.80;;;;;;4795424;30;20035;-79
2021/10/16 04:08:41;;;;;;;8.55;5.75;;;12.20;96.90;;;;;;4780384;30;20036;-79
2021/10/16 04:11:07;;;;;;;8.80;5.50;;;12.20;97.00;;;;;;4780486;30;20392;-79
2021/10/16 04:13:33;;;;;;;8.48;5.80;;;12.20;96.90;;;;;;4795371;29;20150;-79
2021/10/16 04:15:58;;;;;;;9.15;5.50;;;12.20;96.90;;;;;;4783135;29;20027;-79
2021/10/16 04:18:24;;;;;;;7.95;5.43;;;12.10;96.70;;;;;;4798364;29;20061;-80
2021/10/16 04:20:52;;;;;;;8.75;5.90;;;12.10;96.70;;;;;;4793000;29;20023;-79
2021/10/16 04:23:17;;;;;;;7.60;5.28;;;12.10;96.60;;;;;;4781187;30;20219;-80
2021/10/16 04:25:46;;;;;;;7.68;5.75;;;12.10;96.60;;;;;;4780878;29;20024;-79
2021/10/16 04:28:12;;;;;;;8.38;5.60;;;12.10;96.60;;;;;;4779966;30;20079;-79
2021/10/16 04:30:52;;;;;;;11.40;5.88;;;12.10;96.60;;;;;;4758358;30;20034;-79
2021/10/16 04:33:18;;;;;;;14.43;5.60;;;12.00;96.60;;;;;;4779903;29;20031;-79
2021/10/16 04:35:44;;;;;;;7.25;5.43;;;12.00;96.60;;;;;;4780024;30;20028;-79
2021/10/16 04:38:09;;;;;;;8.38;5.53;;;12.00;96.60;;;;;;4780365;30;20035;-79
2021/10/16 04:40:37;;;;;;;7.80;5.85;;;11.90;96.70;;;;;;4779713;30;20286;-79
2021/10/16 04:43:05;;;;;;;;;;;11.90;97.00;;;;;;4779969;30;20027;-79
2021/10/16 04:45:34;;;;;;;7.22;5.68;;;11.90;96.60;;;;;;4794256;29;19991;-79
2021/10/16 04:48:00;;;;;;;7.57;5.97;;;11.80;96.60;;;;;;4794441;30;20063;-79
2021/10/16 04:50:27;;;;;;;10.48;5.50;;;11.80;96.60;;;;;;4794420;30;20103;-79
2021/10/16 04:52:53;;;;;;;6.18;5.28;;;11.70;96.50;;;;;;4788215;29;20270;-79
2021/10/16 04:55:32;;;;;;;10.27;6.72;;;11.70;96.50;;;;;;4788299;30;20031;-79
2021/10/16 04:57:58;;;;;;;8.13;5.72;;;11.60;96.50;;;;;;4779389;30;20028;-79
2021/10/16 05:00:34;;;;;;;7.80;5.60;;;11.60;96.50;;;;;;4784127;30;20048;-79
2021/10/16 05:03:00;;;;;;;6.70;5.53;;;11.60;96.40;;;;;;4793936;29;20036;-79
2021/10/16 05:05:27;;;;;;;8.80;5.30;;;11.60;96.60;;;;;;4791083;29;20269;-79
2021/10/16 05:07:56;;;;;;;8.90;6.45;;;11.50;96.50;;;;;;4794160;30;20351;-79
2021/10/16 05:10:22;;;;;;;6.93;5.68;;;11.50;96.50;;;;;;4778805;29;20077;-79
2021/10/16 05:12:48;;;;;;;8.00;5.60;;;11.60;96.40;;;;;;4778960;30;20035;-79
2021/10/16 05:15:14;;;;;;;5.95;4.68;;;11.60;96.30;;;;;;4779071;30;20028;-79
2021/10/16 05:17:39;;;;;;;8.43;4.82;;;11.50;96.10;;;;;;4761627;29;20028;-79
2021/10/16 05:20:14;;;;;;;5.80;4.50;;;11.50;96.10;;;;;;4762476;30;20059;-80
2021/10/16 05:22:50;;;;;;;8.88;5.30;;;11.60;96.20;;;;;;4773545;30;20398;-79
2021/10/16 05:25:16;;;;;;;7.55;5.38;;;11.60;96.10;;;;;;4793600;30;20032;-79
2021/10/16 05:27:42;;;;;;;6.68;4.90;;;11.60;96.00;;;;;;4766531;30;20035;-79
2021/10/16 05:30:10;;;;;;;6.50;4.45;;;11.60;95.80;;;;;;4790505;30;20081;-79
2021/10/16 05:32:37;;;;;;;6.43;4.78;;;11.50;95.70;;;;;;4777955;30;20089;-79
2021/10/16 05:35:06;;;;;;;7.05;5.10;;;11.50;95.70;;;;;;4789849;30;20024;-80
2021/10/16 05:37:32;;;;;;;7.87;4.97;;;11.50;95.50;;;;;;4781791;29;20252;-79
2021/10/16 05:39:58;;;;;;;11.73;5.55;;;11.50;95.50;;;;;;4791670;30;20028;-79
2021/10/16 05:42:24;;;;;;;5.90;4.80;;;11.50;95.30;;;;;;4789554;30;20088;-79
2021/10/16 05:44:50;;;;;;;6.10;4.75;;;11.40;95.30;;;;;;4777889;29;20057;-79
2021/10/16 05:47:16;;;;;;;9.20;5.00;;;11.40;95.30;;;;;;4789618;29;20255;-80
2021/10/16 05:49:43;;;;;;;7.15;4.68;;;11.40;95.50;;;;;;4787510;29;20108;-80
2021/10/16 05:52:10;;;;;;;;;;;11.30;95.20;;;;;;4790906;30;20038;-80
2021/10/16 05:54:36;;;;;;;9.87;5.43;;;11.30;95.00;;;;;;4787972;29;19909;-79
2021/10/16 05:57:02;;;;;;;10.18;5.57;;;11.20;95.00;;;;;;4786574;30;20027;-79
2021/10/16 05:59:29;;;;;;;;;;;11.30;95.10;;;;;;4788236;30;20030;-79
2021/10/16 06:01:55;;;;;;;8.17;5.43;;;11.20;94.90;;;;;;4777528;29;19917;-79
2021/10/16 06:04:22;;;;;;;;;;;11.20;94.80;;;;;;4786422;30;20089;-79
2021/10/16 06:06:51;;;;;;;6.80;5.15;;;11.20;94.70;;;;;;4774059;30;19916;-79
2021/10/16 06:09:17;;;;;;;12.57;6.28;;;11.20;94.60;;;;;;4786337;30;20103;-79
2021/10/16 06:11:42;;;;;;;8.40;5.90;;;11.10;94.50;;;;;;4785083;30;20412;-79
2021/10/16 06:14:11;;;;;;;7.80;5.72;;;11.10;94.40;;;;;;4786882;29;20024;-79
2021/10/16 06:16:37;;;;;;;11.00;5.47;;;11.00;94.20;;;;;;4789760;29;20098;-79
2021/10/16 06:19:05;;;;;;;;;;;11.10;94.40;;;;;;4790915;29;20046;-79
2021/10/16 06:21:33;;;;;;;8.63;5.78;;;11.10;94.40;;;;;;4791399;29;19916;-79
2021/10/16 06:24:00;;;;;;;8.20;5.72;;;11.00;94.50;;;;;;4786878;29;20096;-79
2021/10/16 06:26:42;;;;;;;7.75;5.60;;;11.10;94.50;;;;;;4787988;30;20050;-79
2021/10/16 06:29:08;;;;;;;7.93;4.97;;;11.20;94.30;;;;;;4788941;29;20497;-79
2021/10/16 06:31:34;;;;;;;9.80;5.03;;;11.30;94.20;;;;;;4777151;30;20032;-79
2021/10/16 06:34:01;;;;;;;11.48;5.43;;;11.30;93.80;;;;;;4786162;30;20051;-79
2021/10/16 06:36:27;;;;;;;9.70;5.28;;;11.40;93.60;;;;;;4786459;30;20036;-79
2021/10/16 06:38:52;;;;;;;7.93;4.93;;;11.50;93.10;;;;;;4782770;29;20384;-79
2021/10/16 06:41:21;;;;;;;9.27;4.63;;;11.50;92.90;;;;;;4787881;30;20043;-79
2021/10/16 06:44:06;;;;;;;7.95;4.38;;;11.60;92.70;;;;;;4764475;30;20032;-79
2021/10/16 06:46:41;;;;;;;12.35;4.72;;;11.60;92.40;;;;;;4776335;30;20052;-79
2021/10/16 06:49:13;;;;;;;8.80;4.10;;;11.70;92.20;;;;;;4766205;30;20097;-79
2021/10/16 06:51:40;;;;;;;6.97;4.23;;;11.80;92.00;;;;;;4793694;30;20517;-79
2021/10/16 06:54:06;;;;;;;15.27;4.30;;;11.80;92.10;;;;;;4779360;30;20030;-79
2021/10/16 06:56:32;;;;;;;9.75;3.90;;;11.80;91.90;;;;;;4791807;30;20032;-79
2021/10/16 06:58:58;;;;;;;12.65;4.47;;;11.90;91.90;;;;;;4775306;30;20031;-79
2021/10/16 07:01:24;;;;;;;8.90;3.85;;;12.00;91.70;;;;;;4793623;29;20339;-79
2021/10/16 07:03:53;;;;;;;10.10;4.50;;;12.00;91.50;;;;;;4791706;30;20219;-79
2021/10/16 07:06:20;;;;;;;10.20;4.38;;;12.00;91.40;;;;;;4779414;30;20035;-79
2021/10/16 07:08:46;;;;;;;9.48;4.45;;;12.00;91.40;;;;;;4775463;30;20134;-79
2021/10/16 07:11:12;;;;;;;9.27;4.28;;;12.00;91.30;;;;;;4777223;30;20376;-79
2021/10/16 07:13:38;;;;;;;11.25;4.63;;;12.00;91.10;;;;;;4779272;30;20373;-79
2021/10/16 07:16:04;;;;;;;15.80;4.93;;;12.10;91.10;;;;;;4795615;29;20027;-79
2021/10/16 07:18:30;;;;;;;13.55;4.68;;;12.10;91.10;;;;;;4793217;29;20214;-79
2021/10/16 07:20:57;;;;;;;10.43;4.30;;;12.10;91.10;;;;;;4794864;30;20399;-79
2021/10/16 07:23:26;;;;;;;10.60;4.65;;;12.20;91.20;;;;;;4789411;29;20072;-79
2021/10/16 07:25:56;;;;;;;14.05;5.82;;;12.20;90.90;;;;;;4793636;29;20043;-79
2021/10/16 07:28:23;;;;;;;8.63;4.93;;;12.10;91.00;;;;;;4780063;30;20215;-79
2021/10/16 07:30:49;;;;;;;12.55;4.63;;;12.10;90.80;;;;;;4793156;29;20024;-79
2021/10/16 07:33:15;;;;;;;11.38;5.07;;;12.20;91.10;;;;;;4790619;30;20065;-79
2021/10/16 07:35:41;;;;;;;9.88;4.78;;;12.30;90.90;;;;;;4779322;30;20023;-79
2021/10/16 07:38:07;;;;;;;10.18;4.78;;;12.30;90.90;;;;;;4786316;30;20147;-79
2021/10/16 07:40:33;;;;;;;9.75;5.80;;;12.30;90.60;;;;;;4791471;29;20114;-79
2021/10/16 07:42:59;;;;;;;10.15;4.80;;;12.30;90.70;;;;;;4788228;30;20377;-79
2021/10/16 07:45:25;;;;;;;18.08;5.55;;;12.30;90.60;;;;;;4788725;30;20047;-79
2021/10/16 07:47:51;;;;;;;7.53;4.28;;;12.40;90.70;;;;;;4782425;30;20105;-79
2021/10/16 07:50:17;;;;;;;8.60;4.65;;;12.40;90.60;;;;;;4792369;30;20032;-79
2021/10/16 07:52:42;;;;;;;9.43;4.93;;;12.50;90.60;;;;;;4794465;29;20031;-79
2021/10/16 07:55:08;;;;;;;10.43;6.18;;;12.50;90.40;;;;;;4789321;29;20054;-79
2021/10/16 07:57:34;;;;;;;9.85;5.60;;;12.60;90.10;;;;;;4793367;29;20304;-79
2021/10/16 08:00:00;;;;;;;10.40;4.72;;;12.60;90.40;;;;;;4794119;29;20036;-79
2021/10/16 08:02:26;;;;;;;9.32;5.18;;;12.70;89.80;;;;;;4775357;29;20323;-79
2021/10/16 08:04:51;;;;;;;10.90;5.70;;;12.70;88.90;;;;;;4779570;30;20058;-79
2021/10/16 08:07:17;;;;;;;10.02;5.38;;;12.80;89.50;;;;;;4794376;30;20062;-79
2021/10/16 08:09:44;;;;;;;8.77;5.20;;;12.80;89.30;;;;;;4794513;30;20027;-80
2021/10/16 08:12:09;;;;;;;9.73;5.97;;;12.90;88.30;;;;;;4794458;30;20043;-79
2021/10/16 08:14:35;;;;;;;14.68;6.65;;;13.00;88.70;;;;;;4773339;30;20035;-79
2021/10/16 08:17:01;;;;;;;9.52;6.43;;;13.00;88.70;;;;;;4780838;30;20062;-79
2021/10/16 08:19:26;;;;;;;11.85;6.40;;;13.00;88.60;;;;;;4786643;29;20042;-79
2021/10/16 08:21:53;;;;;;;10.55;5.72;;;13.10;88.00;;;;;;4794101;30;20040;-79
2021/10/16 08:24:18;;;;;;;11.38;6.03;;;13.10;87.80;;;;;;4791429;30;20055;-79
2021/10/16 08:26:44;;;;;;;9.00;5.97;;;13.10;87.80;;;;;;4793511;29;20040;-80
2021/10/16 08:29:10;;;;;;;11.05;5.95;;;13.20;87.70;;;;;;4779826;30;20291;-79
2021/10/16 08:31:36;;;;;;;12.60;6.18;;;13.30;87.50;;;;;;4778915;30;20043;-78
2021/10/16 08:34:01;;;;;;;14.65;6.22;;;13.40;87.30;;;;;;4794015;29;20028;-79
2021/10/16 08:36:27;;;;;;;8.48;5.47;;;13.40;86.40;;;;;;4778913;29;20028;-79
2021/10/16 08:38:53;;;;;;;12.52;5.68;;;13.40;86.20;;;;;;4778998;30;20220;-81
2021/10/16 08:41:19;;;;;;;12.30;5.70;;;13.60;86.20;;;;;;4779186;30;20028;-80
2021/10/16 08:43:45;;;;;;;11.63;5.97;;;13.70;86.10;;;;;;4794199;30;20044;-80
2021/10/16 08:46:12;;;;;;;12.98;5.80;;;13.80;86.00;;;;;;4797681;29;20081;-79
2021/10/16 08:48:41;;;;;;;8.77;5.80;;;13.90;84.60;;;;;;4793389;29;20101;-79
2021/10/16 08:51:08;;;;;;;19.00;6.20;;;14.00;84.50;;;;;;4780035;30;20704;-79
2021/10/16 08:53:33;;;;;;;9.50;4.82;;;14.20;84.30;;;;;;4783827;29;20035;-79
2021/10/16 08:56:04;;;;;;;10.23;5.20;;;14.40;83.50;;;;;;4778624;30;20311;-79
2021/10/16 08:58:31;;;;;;;8.88;5.88;;;14.50;82.00;;;;;;4765288;30;20068;-79
2021/10/16 09:00:57;;;;;;;;;;;14.70;82.00;;;;;;4774906;30;20031;-79
2021/10/16 09:03:29;;;;;;;11.30;5.60;;;14.70;81.20;;;;;;4793016;30;20205;-78
2021/10/16 09:06:30;;;;;;;13.27;5.78;;;15.00;81.40;;;;;;4793667;30;20063;-79
2021/10/16 09:09:01;;;;;;;10.10;5.70;;;15.20;80.00;;;;;;4778225;30;20046;-79
2021/10/16 09:11:28;;;;;;;11.45;5.50;;;15.10;78.60;;;;;;4778087;30;20370;-79
2021/10/16 09:13:58;;;;;;;10.23;5.20;;;15.00;77.80;;;;;;4792628;29;20032;-79
2021/10/16 09:16:28;;;;;;;8.07;5.50;;;15.00;79.10;;;;;;4781065;30;20039;-79
2021/10/16 09:18:57;;;;;;;11.20;5.05;;;15.20;78.10;;;;;;4763607;30;20392;-79
2021/10/16 09:21:25;;;;;;;8.40;4.53;;;15.30;78.40;;;;;;4779727;30;20339;-79
2021/10/16 09:24:11;;;;;;;9.90;5.00;;;15.40;77.30;;;;;;4777138;30;20102;-79
2021/10/16 09:26:41;;;;;;;8.13;4.77;;;15.60;77.50;;;;;;4777487;30;20043;-79
2021/10/16 09:29:08;;;;;;;9.23;5.45;;;15.80;77.20;;;;;;4776228;30;20216;-79
2021/10/16 09:32:11;;;;;;;8.98;4.63;;;15.90;75.50;;;;;;4792234;30;20079;-79
2021/10/16 09:34:39;;;;;;;10.23;4.93;;;15.90;76.30;;;;;;4756999;30;20074;-79
2021/10/16 09:37:08;;;;;;;11.68;4.63;;;16.00;75.20;;;;;;4744804;30;20350;-79
2021/10/16 09:39:36;;;;;;;9.30;4.35;;;16.00;74.90;;;;;;4743998;30;20039;-79
2021/10/16 09:42:03;;;;;;;8.93;4.63;;;16.20;75.80;;;;;;4753263;30;20381;-79
2021/10/16 09:44:31;;;;;;;8.98;4.75;;;16.30;75.60;;;;;;4729639;30;20351;-79
2021/10/16 09:47:11;;;;;;;13.82;5.75;;;16.30;74.40;;;;;;4739476;30;20052;-79
2021/10/16 09:49:49;;;;;;;10.30;4.75;;;16.40;73.20;;;;;;4744411;30;20039;-79
2021/10/16 09:52:17;;;;;;;13.18;5.45;;;16.40;73.60;;;;;;4758855;30;20055;-79
2021/10/16 09:54:48;;;;;;;9.90;4.97;;;16.60;71.90;;;;;;4728288;30;20285;-79
2021/10/16 09:57:16;;;;;;;8.93;4.68;;;16.60;71.40;;;;;;4728572;30;20398;-79
2021/10/16 09:59:42;;;;;;;8.43;4.18;;;16.50;71.90;;;;;;4730356;30;20076;-78
2021/10/16 10:02:09;;;;;;;11.18;4.28;;;16.70;72.30;;;;;;4740433;30;20024;-79
2021/10/16 10:04:45;;;;;;;12.27;5.00;;;16.90;72.50;;;;;;4727426;30;20320;-78
2021/10/16 10:07:12;;;;;;;10.65;3.83;;;17.20;71.10;;;;;;4741224;30;20040;-79
2021/10/16 10:09:42;;;;;;;10.00;4.35;;;17.30;67.30;;;;;;4752508;30;20043;-79
2021/10/16 10:12:12;;;;;;;13.13;4.38;;;16.80;68.90;;;;;;4791398;30;20040;-79
2021/10/16 10:14:46;;;;;;;12.35;4.18;;;16.60;69.90;;;;;;4769138;30;20535;-79
2021/10/16 10:17:16;;;;;;;9.43;4.15;;;16.30;70.20;;;;;;4792788;29;20126;-79
2021/10/16 10:19:49;;;;;;;9.52;3.78;;;16.20;70.30;;;;;;4791172;29;20027;-79
2021/10/16 10:22:17;;;;;;;11.10;3.95;;;16.10;70.80;;;;;;4795161;29;20107;-78
2021/10/16 10:24:45;;;;;;;6.22;3.40;;;16.10;72.60;;;;;;4795471;30;20051;-78
2021/10/16 10:27:13;;;;;;;10.60;3.47;;;16.30;71.50;;;;;;4793580;29;20076;-79
2021/10/16 10:29:41;;;;;;;9.80;3.25;;;16.60;71.10;;;;;;4796046;30;20046;-79
2021/10/16 10:32:28;;;;;;;14.13;3.75;;;16.90;69.70;;;;;;4765890;30;20140;-79
2021/10/16 10:35:04;;;;;;;;;;;17.00;67.00;;;;;;4792046;30;20062;-79
2021/10/16 10:37:42;;;;;;;9.82;3.15;;;17.10;65.30;;;;;;4796525;29;20091;-79
2021/10/16 10:40:35;;;;;;;11.15;4.13;;;17.20;66.30;;;;;;4782380;30;20032;-79
2021/10/16 10:43:01;;;;;;;11.13;3.60;;;17.20;64.60;;;;;;4770870;30;20040;-78
2021/10/16 10:45:35;;;;;;;12.52;4.15;;;16.90;65.60;;;;;;4792658;30;20036;-79
2021/10/16 10:48:04;;;;;;;11.63;3.28;;;17.00;67.10;;;;;;4775876;30;20031;-79
2021/10/16 10:50:54;;;;;;;8.40;2.92;;;17.20;67.20;;;;;;4778872;30;20047;-79
2021/10/16 10:53:28;;;;;;;7.22;3.30;;;17.50;66.90;;;;;;4779950;30;20112;-80
2021/10/16 10:56:09;;;;;;;7.20;3.25;;;17.70;65.50;;;;;;4791811;29;20039;-79
2021/10/16 10:58:56;;;;;;;8.52;3.25;;;17.60;65.30;;;;;;4783300;30;20073;-79
2021/10/16 11:01:59;;;;;;;9.20;3.10;;;17.70;64.20;;;;;;4774025;30;20041;-79
2021/10/16 11:04:46;;;;;;;10.38;3.50;;;17.70;64.70;;;;;;4782580;30;20043;-79
2021/10/16 11:07:40;;;;;;;8.23;2.97;;;17.80;64.80;;;;;;4792663;30;20354;-79
2021/10/16 11:10:07;;;;;;;11.80;3.30;;;17.60;63.00;;;;;;4731646;30;20036;-79
2021/10/16 11:12:39;;;;;;;7.63;3.10;;;17.30;62.90;;;;;;4761598;30;20036;-80
2021/10/16 11:15:07;;;;;;;6.53;3.05;;;17.00;63.50;;;;;;4747284;30;20344;-81
2021/10/16 11:17:39;;;;;;;6.80;3.17;;;16.80;65.00;;;;;;4761238;30;20040;-79
2021/10/16 11:20:06;;;;;;;6.13;2.60;;;16.80;64.20;;;;;;4747217;30;20056;-79
2021/10/16 11:22:51;;;;;;;;;;;16.90;65.30;;;;;;4747608;30;20055;-79
2021/10/16 11:25:26;;;;;;;10.50;3.60;;;16.80;63.40;;;;;;4747022;30;19929;-79
2021/10/16 11:28:13;;;;;;;9.40;3.00;;;16.50;64.60;;;;;;4730099;30;20048;-79
2021/10/16 11:30:41;;;;;;;9.50;3.38;;;16.30;65.60;;;;;;4746379;30;20055;-79
2021/10/16 11:33:10;;;;;;;9.00;2.60;;;16.40;66.70;;;;;;4731012;30;20044;-79
2021/10/16 11:35:37;;;;;;;8.27;2.50;;;16.60;65.00;;;;;;4761167;30;20129;-79
2021/10/16 11:38:03;;;;;;;6.93;2.30;;;16.80;64.40;;;;;;4761050;30;20028;-78
2021/10/16 11:40:31;;;;;;;8.25;2.65;;;17.00;63.40;;;;;;4750618;30;20388;-78
2021/10/16 11:43:02;;;;;;;8.32;2.88;;;17.10;61.20;;;;;;4759154;30;20033;-79
2021/10/16 11:45:33;;;;;;;6.45;2.35;;;17.00;61.30;;;;;;4746498;30;20055;-78
2021/10/16 11:48:01;;;;;;;9.50;2.85;;;17.10;61.90;;;;;;4785381;30;20104;-79
2021/10/16 11:50:36;;;;;;;8.57;2.40;;;17.30;61.80;;;;;;4777647;30;20040;-79
2021/10/16 11:53:05;;;;;;;9.30;2.47;;;17.40;62.50;;;;;;4770642;30;20052;-77
2021/10/16 11:55:31;;;;;;;8.18;2.55;;;17.20;61.60;;;;;;4786657;29;20023;-79
2021/10/16 11:58:05;;;;;;;11.88;2.65;;;17.00;62.30;;;;;;4787364;30;20334;-79
2021/10/16 12:00:33;;;;;;;11.35;1.80;;;16.90;60.90;;;;;;4786824;29;20134;-79
2021/10/16 12:03:15;;;;;;;8.82;2.90;;;16.80;61.00;;;;;;4764784;30;20323;-79
2021/10/16 12:05:46;;;;;;;5.88;2.28;;;16.60;61.80;;;;;;4782023;30;20035;-79
2021/10/16 12:08:16;;;;;;;11.88;2.70;;;16.50;62.60;;;;;;4793532;29;20080;-78
2021/10/16 12:10:56;;;;;;;7.70;2.60;;;16.40;62.90;;;;;;4791769;30;20028;-79
2021/10/16 12:13:34;;;;;;;9.40;2.90;;;16.30;62.90;;;;;;4778049;30;20078;-79
2021/10/16 12:16:13;;;;;;;5.68;2.05;;;16.30;64.20;;;;;;4779963;29;20081;-79
2021/10/16 12:18:57;;;;;;;8.13;2.42;;;16.30;64.10;;;;;;4793509;29;20024;-79
2021/10/16 12:21:50;;;;;;;8.00;2.55;;;16.30;64.30;;;;;;4789500;29;20035;-79
2021/10/16 12:24:24;;;;;;;11.50;2.85;;;16.50;64.40;;;;;;4778940;30;20165;-79
2021/10/16 12:27:05;;;;;;;9.82;2.92;;;16.70;64.20;;;;;;4784551;30;20043;-79
2021/10/16 12:29:36;;;;;;;7.40;1.92;;;16.70;60.40;;;;;;4778212;30;20039;-78
2021/10/16 12:32:05;;;;;;;14.05;2.75;;;16.80;61.00;;;;;;4779247;30;20309;-81
2021/10/16 12:34:32;;;;;;;11.07;3.13;;;16.80;61.10;;;;;;4780128;30;20060;-82
2021/10/16 12:37:02;;;;;;;8.27;2.53;;;16.90;61.60;;;;;;4775900;30;20275;-81
2021/10/16 12:39:35;;;;;;;15.48;3.63;;;17.00;60.40;;;;;;4775752;30;20032;-82
2021/10/16 12:42:13;;;;;;;11.88;2.53;;;17.00;60.70;;;;;;4776373;30;20075;-81
2021/10/16 12:44:45;;;;;;;7.95;2.00;;;17.10;60.60;;;;;;4776073;30;20382;-80
2021/10/16 12:47:19;;;;;;;7.28;2.13;;;17.20;60.10;;;;;;4776849;30;20279;-79
2021/10/16 12:49:58;;;;;;;3.03;1.70;;;17.10;58.10;;;;;;4758317;30;20110;-79
2021/10/16 12:52:26;;;;;;;6.30;1.92;;;17.00;58.20;;;;;;4748548;30;20355;-78
2021/10/16 12:54:53;;;;;;;7.88;1.98;;;16.90;58.80;;;;;;4771442;30;20052;-80
2021/10/16 12:57:19;;;;;;;10.10;2.42;;;17.00;57.50;;;;;;4763105;30;20372;-79
2021/10/16 12:59:44;;;;;;;6.53;2.20;;;17.00;58.40;;;;;;4776640;30;20032;-79
2021/10/16 13:02:10;;;;;;;11.85;2.72;;;17.00;59.30;;;;;;4782687;30;20358;-79
2021/10/16 13:04:43;;;;;;;11.35;2.20;;;17.00;59.70;;;;;;4778609;29;20043;-81
2021/10/16 13:07:08;;;;;;;12.15;3.08;;;17.00;58.70;;;;;;4775256;29;20159;-81
2021/10/16 13:09:35;;;;;;;10.82;2.80;;;17.00;59.60;;;;;;4773012;30;20071;-81
2021/10/16 13:12:04;;;;;;;15.02;2.30;;;17.00;60.10;;;;;;4782553;30;20082;-81
2021/10/16 13:14:30;;;;;;;12.05;2.97;;;17.10;59.00;;;;;;4791165;29;20347;-79
2021/10/16 13:16:56;;;;;;;15.82;2.20;;;17.10;57.70;;;;;;4778911;29;20043;-79
2021/10/16 13:19:23;;;;;;;6.43;2.20;;;17.10;57.30;;;;;;4775115;30;20027;-79
2021/10/16 13:21:49;;;;;;;9.82;2.28;;;16.90;56.20;;;;;;4778328;29;20034;-78
2021/10/16 13:24:15;;;;;;;12.88;2.55;;;16.90;57.40;;;;;;4778633;30;20115;-79
2021/10/16 13:26:41;;;;;;;4.95;2.30;;;16.90;58.20;;;;;;4778164;30;20042;-78
2021/10/16 13:29:07;;;;;;;5.78;1.92;;;16.80;57.80;;;;;;4773728;30;20035;-79
2021/10/16 13:31:34;;;;;;;7.90;2.05;;;16.80;57.90;;;;;;4781756;30;20106;-79
2021/10/16 13:34:01;;;;;;;3.17;1.52;;;16.80;57.40;;;;;;4779593;30;20324;-78
2021/10/16 13:36:27;;;;;;;5.15;2.20;;;16.70;56.70;;;;;;4794853;29;20035;-77
2021/10/16 13:38:53;;;;;;;5.50;2.10;;;16.70;57.40;;;;;;4794633;29;20318;-78
2021/10/16 13:41:19;;;;;;;5.53;2.03;;;16.70;58.60;;;;;;4779279;30;20093;-78
2021/10/16 13:43:46;;;;;;;7.32;1.52;;;16.70;58.30;;;;;;4792813;30;20107;-78
2021/10/16 13:46:12;;;;;;;4.40;1.77;;;16.70;58.20;;;;;;4792022;29;20362;-78
2021/10/16 13:48:38;;;;;;;4.90;2.10;;;16.60;57.50;;;;;;4792755;30;20032;-78
2021/10/16 13:51:04;;;;;;;6.32;1.52;;;16.60;55.90;;;;;;4792608;29;20063;-78
2021/10/16 13:53:30;;;;;;;5.50;1.77;;;16.50;56.50;;;;;;4792639;29;20084;-78
2021/10/16 13:55:55;;;;;;;6.28;1.92;;;16.50;57.20;;;;;;4781187;30;20346;-78
2021/10/16 13:58:21;;;;;;;7.00;1.80;;;16.50;57.10;;;;;;4778699;30;20339;-78
2021/10/16 14:00:49;;;;;;;5.47;2.08;;;16.40;57.00;;;;;;4792699;30;20039;-78
2021/10/16 14:03:15;;;;;;;5.20;2.00;;;16.40;58.20;;;;;;4777308;30;20081;-78
2021/10/16 14:05:41;;;;;;;5.90;1.77;;;16.40;57.80;;;;;;4776405;30;20043;-78
2021/10/16 14:08:07;;;;;;;5.35;1.30;;;16.40;56.90;;;;;;4792125;30;20107;-78
2021/10/16 14:10:33;;;;;;;5.05;1.70;;;16.40;57.50;;;;;;4763235;30;20056;-78
2021/10/16 14:12:59;;;;;;;7.35;2.35;;;16.30;57.60;;;;;;4792179;29;20036;-78
2021/10/16 14:15:25;;;;;;;6.97;2.05;;;16.30;57.80;;;;;;4789328;29;20141;-78
2021/10/16 14:17:50;;;;;;;8.43;1.67;;;16.30;58.00;;;;;;4765193;29;20222;-78
2021/10/16 14:20:16;;;;;;;8.20;2.40;;;16.30;58.40;;;;;;4792175;30;20043;-78
2021/10/16 14:22:44;;;;;;;7.65;2.35;;;16.30;57.90;;;;;;4792158;30;20035;-78
2021/10/16 14:25:10;;;;;;;6.10;1.50;;;16.20;58.40;;;;;;4792064;29;20023;-78
2021/10/16 14:27:37;;;;;;;5.22;1.70;;;16.30;58.50;;;;;;4791626;30;20047;-78
2021/10/16 14:30:10;;;;;;;4.50;1.67;;;16.20;57.20;;;;;;4779847;29;20095;-78
2021/10/16 14:32:36;;;;;;;5.50;1.75;;;16.10;57.40;;;;;;4791306;30;20036;-78
2021/10/16 14:35:03;;;;;;;5.63;2.60;;;16.10;57.90;;;;;;4767758;30;20031;-78
2021/10/16 14:37:29;;;;;;;5.50;2.28;;;16.10;58.60;;;;;;4790346;29;20062;-78
2021/10/16 14:39:55;;;;;;;8.07;2.03;;;16.10;59.30;;;;;;4791427;29;20090;-77
2021/10/16 14:42:21;;;;;;;4.95;2.25;;;16.10;58.30;;;;;;4788394;30;20342;-77
2021/10/16 14:44:46;;;;;;;8.05;2.15;;;16.00;57.20;;;;;;4774613;30;20027;-78
2021/10/16 14:47:12;;;;;;;8.77;1.80;;;16.00;57.30;;;;;;4792943;29;20051;-78
2021/10/16 14:49:38;;;;;;;4.47;2.05;;;15.90;57.50;;;;;;4776559;30;20031;-78
2021/10/16 14:52:04;;;;;;;4.50;2.08;;;15.90;57.80;;;;;;4789080;30;20036;-78
2021/10/16 14:54:29;;;;;;;10.43;2.78;;;15.80;58.70;;;;;;4774802;29;20115;-78
2021/10/16 14:56:55;;;;;;;9.85;2.38;;;15.80;59.30;;;;;;4789649;30;20335;-77
2021/10/16 14:59:21;;;;;;;9.48;2.42;;;15.70;59.50;;;;;;4790142;30;20023;-78
2021/10/16 15:01:47;;;;;;;6.63;2.22;;;15.70;59.70;;;;;;4777277;30;20063;-77
2021/10/16 15:04:12;;;;;;;5.13;2.08;;;15.60;59.80;;;;;;4788979;29;20415;-78
2021/10/16 15:06:38;;;;;;;5.78;1.90;;;15.60;60.20;;;;;;4786198;29;20043;-78
2021/10/16 15:09:04;;;;;;;6.55;2.30;;;15.60;60.20;;;;;;4793157;29;20024;-77
2021/10/16 15:11:30;;;;;;;8.07;2.30;;;15.60;60.10;;;;;;4780476;29;20319;-78
2021/10/16 15:13:56;;;;;;;11.32;3.38;;;15.50;60.20;;;;;;4793271;29;20046;-78
2021/10/16 15:16:22;;;;;;;6.05;2.10;;;15.50;60.40;;;;;;4781172;30;20042;-78
2021/10/16 15:18:48;;;;;;;9.30;2.22;;;15.50;60.70;;;;;;4792355;29;20143;-77
2021/10/16 15:21:14;;;;;;;5.63;2.83;;;15.40;61.50;;;;;;4778703;30;20032;-77
2021/10/16 15:23:40;;;;;;;10.00;3.40;;;15.40;61.00;;;;;;4778690;30;20028;-77
2021/10/16 15:26:06;;;;;;;12.75;2.75;;;15.40;60.80;;;;;;4794616;29;20032;-77
2021/10/16 15:28:35;;;;;;;9.57;2.47;;;15.30;61.20;;;;;;4789737;29;20033;-78
2021/10/16 15:31:02;;;;;;;8.65;2.90;;;15.30;62.00;;;;;;4787650;30;20035;-77
2021/10/16 15:33:28;;;;;;;7.43;2.10;;;15.20;61.80;;;;;;4793713;29;20254;-77
2021/10/16 15:35:54;;;;;;;9.02;3.47;;;15.20;62.20;;;;;;4779776;30;20020;-77
2021/10/16 15:38:20;;;;;;;11.55;3.15;;;15.10;62.50;;;;;;4779129;30;20024;-77
2021/10/16 15:40:46;;;;;;;8.17;2.53;;;15.00;62.60;;;;;;4777589;30;20028;-77